sensor_id;sensor_type;location;lat;lon;timestamp;pressure;altitude;pressure_sealevel;temperature;humidity
21821;BME280;11073;48.586;12.066;2023-04-26T00:01:10;96344.34;;;8.42;68.46
21821;BME280;11073;48.586;12.066;2023-04-26T00:03:38;96341.88;;;8.41;68.40
21821;BME280;11073;48.586;12.066;2023-04-26T00:06:08;96332.38;;;8.32;68.53
21821;BME280;11073;48.586;12.066;2023-04-26T00:08:37;96344.47;;;8.29;68.57
21821;BME280;11073;48.586;12.066;2023-04-26T00:11:07;96339.53;;;8.26;68.83
21821;BME280;11073;48.586;12.066;2023-04-26T00:13:36;96341.28;;;8.32;68.93
21821;BME280;11073;48.586;12.066;2023-04-26T00:16:05;96341.91;;;8.34;68.88
21821;BME280;11073;48.586;12.066;2023-04-26T00:18:34;96327.47;;;8.28;69.03
21821;BME280;11073;48.586;12.066;2023-04-26T00:21:03;96325.28;;;8.37;69.25
21821;BME280;11073;48.586;12.066;2023-04-26T00:23:32;96332.47;;;8.43;69.32
21821;BME280;11073;48.586;12.066;2023-04-26T00:26:04;96328.06;;;8.49;69.62
21821;BME280;11073;48.586;12.066;2023-04-26T00:28:34;96329.47;;;8.51;69.38
21821;BME280;11073;48.586;12.066;2023-04-26T00:31:03;96321.94;;;8.42;69.09
21821;BME280;11073;48.586;12.066;2023-04-26T00:33:31;96276.69;;;8.07;69.14
21821;BME280;11073;48.586;12.066;2023-04-26T00:36:01;96339.19;;;8.52;69.14
21821;BME280;11073;48.586;12.066;2023-04-26T00:38:30;96339.78;;;8.54;69.23
21821;BME280;11073;48.586;12.066;2023-04-26T00:40:59;96328.06;;;8.49;69.24
21821;BME280;11073;48.586;12.066;2023-04-26T00:43:28;96336.66;;;8.57;68.96
21821;BME280;11073;48.586;12.066;2023-04-26T00:45:58;96333.13;;;8.57;69.12
21821;BME280;11073;48.586;12.066;2023-04-26T00:48:27;96336.19;;;8.61;69.28
21821;BME280;11073;48.586;12.066;2023-04-26T00:50:56;96333.72;;;8.59;69.17
21821;BME280;11073;48.586;12.066;2023-04-26T00:53:25;96337.00;;;8.61;69.16
21821;BME280;11073;48.586;12.066;2023-04-26T00:55:55;96342.41;;;8.61;69.14
21821;BME280;11073;48.586;12.066;2023-04-26T00:58:25;96338.75;;;8.55;69.08
21821;BME280;11073;48.586;12.066;2023-04-26T01:00:54;96334.41;;;8.54;69.16
21821;BME280;11073;48.586;12.066;2023-04-26T01:03:24;96332.84;;;8.47;69.34
21821;BME280;11073;48.586;12.066;2023-04-26T01:05:54;96340.66;;;8.55;69.31
21821;BME280;11073;48.586;12.066;2023-04-26T01:08:23;96340.41;;;8.56;69.35
21821;BME280;11073;48.586;12.066;2023-04-26T01:10:52;96340.03;;;8.53;69.15
21821;BME280;11073;48.586;12.066;2023-04-26T01:13:22;96332.72;;;8.42;69.12
21821;BME280;11073;48.586;12.066;2023-04-26T01:15:52;96340.72;;;8.48;69.28
21821;BME280;11073;48.586;12.066;2023-04-26T01:18:22;96339.66;;;8.49;69.42
21821;BME280;11073;48.586;12.066;2023-04-26T01:20:52;96334.72;;;8.46;69.45
21821;BME280;11073;48.586;12.066;2023-04-26T01:23:24;96331.66;;;8.43;69.33
21821;BME280;11073;48.586;12.066;2023-04-26T01:25:52;96333.16;;;8.39;69.37
21821;BME280;11073;48.586;12.066;2023-04-26T01:28:23;96315.84;;;8.28;69.51
21821;BME280;11073;48.586;12.066;2023-04-26T01:30:51;96341.41;;;8.44;69.30
21821;BME280;11073;48.586;12.066;2023-04-26T01:33:20;96351.13;;;8.45;69.48
21821;BME280;11073;48.586;12.066;2023-04-26T01:35:50;96340.34;;;8.45;69.52
21821;BME280;11073;48.586;12.066;2023-04-26T01:38:19;96341.41;;;8.44;69.33
21821;BME280;11073;48.586;12.066;2023-04-26T01:40:49;96348.44;;;8.45;69.44
21821;BME280;11073;48.586;12.066;2023-04-26T01:43:17;96346.78;;;8.44;69.33
21821;BME280;11073;48.586;12.066;2023-04-26T01:45:50;96342.31;;;8.38;69.63
21821;BME280;11073;48.586;12.066;2023-04-26T01:48:28;96350.31;;;8.44;69.68
21821;BME280;11073;48.586;12.066;2023-04-26T01:51:00;96344.41;;;8.36;69.48
21821;BME280;11073;48.586;12.066;2023-04-26T01:53:29;96347.84;;;8.43;69.41
21821;BME280;11073;48.586;12.066;2023-04-26T01:56:01;96351.13;;;8.45;69.33
21821;BME280;11073;48.586;12.066;2023-04-26T01:58:30;96351.72;;;8.47;69.42
21821;BME280;11073;48.586;12.066;2023-04-26T02:01:04;96352.19;;;8.44;69.15
21821;BME280;11073;48.586;12.066;2023-04-26T02:03:33;96353.25;;;8.43;69.19
21821;BME280;11073;48.586;12.066;2023-04-26T02:06:03;96355.94;;;8.43;68.97
21821;BME280;11073;48.586;12.066;2023-04-26T02:08:32;96350.41;;;8.38;69.00
21821;BME280;11073;48.586;12.066;2023-04-26T02:11:02;96342.13;;;8.33;68.86
21821;BME280;11073;48.586;12.066;2023-04-26T02:13:31;96354.38;;;8.35;68.89
21821;BME280;11073;48.586;12.066;2023-04-26T02:16:01;96353.38;;;8.29;68.85
21821;BME280;11073;48.586;12.066;2023-04-26T02:18:30;96357.94;;;8.29;68.75
21821;BME280;11073;48.586;12.066;2023-04-26T02:20:59;96358.41;;;8.26;68.59
21821;BME280;11073;48.586;12.066;2023-04-26T02:23:30;96362.81;;;8.20;68.68
21821;BME280;11073;48.586;12.066;2023-04-26T02:25:59;96362.59;;;8.22;68.58
21821;BME280;11073;48.586;12.066;2023-04-26T02:28:29;96354.72;;;8.20;68.73
21821;BME280;11073;48.586;12.066;2023-04-26T02:30:58;96336.47;;;8.04;68.81
21821;BME280;11073;48.586;12.066;2023-04-26T02:33:28;96364.31;;;8.16;68.70
21821;BME280;11073;48.586;12.066;2023-04-26T02:35:58;96367.91;;;8.10;68.68
21821;BME280;11073;48.586;12.066;2023-04-26T02:38:26;96346.50;;;7.97;68.65
21821;BME280;11073;48.586;12.066;2023-04-26T02:40:57;96335.78;;;7.90;68.88
21821;BME280;11073;48.586;12.066;2023-04-26T02:43:26;96352.41;;;8.06;68.96
21821;BME280;11073;48.586;12.066;2023-04-26T02:45:56;96362.56;;;8.03;69.00
21821;BME280;11073;48.586;12.066;2023-04-26T02:48:28;96355.41;;;7.97;68.87
21821;BME280;11073;48.586;12.066;2023-04-26T02:50:57;96371.94;;;8.01;68.83
21821;BME280;11073;48.586;12.066;2023-04-26T02:53:26;96364.91;;;8.00;68.76
21821;BME280;11073;48.586;12.066;2023-04-26T02:55:55;96365.97;;;7.99;68.87
21821;BME280;11073;48.586;12.066;2023-04-26T02:58:24;96368.66;;;7.99;68.88
21821;BME280;11073;48.586;12.066;2023-04-26T03:00:57;96363.56;;;7.91;68.65
21821;BME280;11073;48.586;12.066;2023-04-26T03:03:27;96361.69;;;7.91;68.68
21821;BME280;11073;48.586;12.066;2023-04-26T03:05:58;96366.84;;;7.93;68.74
21821;BME280;11073;48.586;12.066;2023-04-26T03:08:28;96359.06;;;7.85;68.75
21821;BME280;11073;48.586;12.066;2023-04-26T03:10:57;96360.66;;;7.92;68.65
21821;BME280;11073;48.586;12.066;2023-04-26T03:13:26;96364.97;;;7.93;68.45
21821;BME280;11073;48.586;12.066;2023-04-26T03:15:57;96362.94;;;7.89;68.72
21821;BME280;11073;48.586;12.066;2023-04-26T03:18:26;96360.72;;;7.86;68.70
21821;BME280;11073;48.586;12.066;2023-04-26T03:20:55;96360.88;;;7.91;68.79
21821;BME280;11073;48.586;12.066;2023-04-26T03:23:23;96371.84;;;7.89;68.63
21821;BME280;11073;48.586;12.066;2023-04-26T03:25:54;96366.91;;;7.86;68.71
21821;BME280;11073;48.586;12.066;2023-04-26T03:28:22;96354.72;;;7.84;68.45
21821;BME280;11073;48.586;12.066;2023-04-26T03:30:51;96370.59;;;7.92;68.38
21821;BME280;11073;48.586;12.066;2023-04-26T03:33:22;96368.97;;;7.91;68.26
21821;BME280;11073;48.586;12.066;2023-04-26T03:35:52;96374.34;;;7.91;68.24
21821;BME280;11073;48.586;12.066;2023-04-26T03:38:21;96375.25;;;7.85;68.36
21821;BME280;11073;48.586;12.066;2023-04-26T03:40:50;96365.72;;;7.82;68.27
21821;BME280;11073;48.586;12.066;2023-04-26T03:43:19;96366.16;;;7.79;68.14
21821;BME280;11073;48.586;12.066;2023-04-26T03:45:49;96375.25;;;7.85;68.22
21821;BME280;11073;48.586;12.066;2023-04-26T03:48:17;96369.91;;;7.78;68.29
21821;BME280;11073;48.586;12.066;2023-04-26T03:50:47;96375.47;;;7.83;68.30
21821;BME280;11073;48.586;12.066;2023-04-26T03:53:16;96380.03;;;7.83;68.27
21821;BME280;11073;48.586;12.066;2023-04-26T03:55:45;96377.53;;;7.81;68.43
21821;BME280;11073;48.586;12.066;2023-04-26T03:58:14;96380.69;;;7.78;68.25
21821;BME280;11073;48.586;12.066;2023-04-26T04:00:43;96361.28;;;7.69;68.41
21821;BME280;11073;48.586;12.066;2023-04-26T04:03:12;96389.75;;;7.84;68.38
21821;BME280;11073;48.586;12.066;2023-04-26T04:05:41;96393.94;;;7.80;68.42
21821;BME280;11073;48.586;12.066;2023-04-26T04:08:12;96389.38;;;7.80;68.38
21821;BME280;11073;48.586;12.066;2023-04-26T04:10:40;96391.84;;;7.82;68.40
21821;BME280;11073;48.586;12.066;2023-04-26T04:13:11;96373.88;;;7.76;68.53
21821;BME280;11073;48.586;12.066;2023-04-26T04:15:40;96370.38;;;7.75;68.39
21821;BME280;11073;48.586;12.066;2023-04-26T04:18:09;96373.31;;;7.67;68.50
21821;BME280;11073;48.586;12.066;2023-04-26T04:20:39;96379.09;;;7.70;68.68
21821;BME280;11073;48.586;12.066;2023-04-26T04:23:08;96385.91;;;7.73;68.77
21821;BME280;11073;48.586;12.066;2023-04-26T04:25:40;96380.75;;;7.71;68.59
21821;BME280;11073;48.586;12.066;2023-04-26T04:28:12;96395.22;;;7.77;68.71
21821;BME280;11073;48.586;12.066;2023-04-26T04:30:41;96403.91;;;7.79;68.53
21821;BME280;11073;48.586;12.066;2023-04-26T04:33:10;96389.28;;;7.68;68.69
21821;BME280;11073;48.586;12.066;2023-04-26T04:35:40;96408.22;;;7.80;68.64
21821;BME280;11073;48.586;12.066;2023-04-26T04:38:09;96413.41;;;7.82;68.52
21821;BME280;11073;48.586;12.066;2023-04-26T04:40:39;96409.88;;;7.81;68.60
21821;BME280;11073;48.586;12.066;2023-04-26T04:43:09;96408.00;;;7.82;68.37
21821;BME280;11073;48.586;12.066;2023-04-26T04:45:39;96415.66;;;7.85;68.30
21821;BME280;11073;48.586;12.066;2023-04-26T04:48:08;96412.38;;;7.83;68.26
21821;BME280;11073;48.586;12.066;2023-04-26T04:50:38;96416.09;;;7.82;68.20
21821;BME280;11073;48.586;12.066;2023-04-26T04:53:09;96410.09;;;7.80;68.23
21821;BME280;11073;48.586;12.066;2023-04-26T04:55:40;96415.06;;;7.83;68.17
21821;BME280;11073;48.586;12.066;2023-04-26T04:58:11;96417.38;;;7.79;68.07
21821;BME280;11073;48.586;12.066;2023-04-26T05:00:41;96418.78;;;7.82;67.93
21821;BME280;11073;48.586;12.066;2023-04-26T05:03:40;96415.06;;;7.83;67.89
21821;BME280;11073;48.586;12.066;2023-04-26T05:06:10;96423.97;;;7.83;67.87
21821;BME280;11073;48.586;12.066;2023-04-26T05:08:39;96408.91;;;7.76;67.97
21821;BME280;11073;48.586;12.066;2023-04-26T05:11:10;96426.63;;;7.90;67.89
21821;BME280;11073;48.586;12.066;2023-04-26T05:13:39;96424.75;;;7.90;67.49
21821;BME280;11073;48.586;12.066;2023-04-26T05:16:07;96438.00;;;7.92;67.30
21821;BME280;11073;48.586;12.066;2023-04-26T05:18:37;96426.00;;;7.88;67.23
21821;BME280;11073;48.586;12.066;2023-04-26T05:21:05;96436.13;;;7.92;66.93
21821;BME280;11073;48.586;12.066;2023-04-26T05:23:35;96435.91;;;7.94;66.88
21821;BME280;11073;48.586;12.066;2023-04-26T05:26:04;96440.69;;;7.92;66.73
21821;BME280;11073;48.586;12.066;2023-04-26T05:29:04;96447.72;;;7.93;66.49
21821;BME280;11073;48.586;12.066;2023-04-26T05:32:01;96439.19;;;7.96;66.48
21821;BME280;11073;48.586;12.066;2023-04-26T05:34:40;96438.97;;;7.97;66.14
21821;BME280;11073;48.586;12.066;2023-04-26T05:37:14;96450.13;;;8.01;66.08
21821;BME280;11073;48.586;12.066;2023-04-26T05:39:43;96426.63;;;7.90;65.92
21821;BME280;11073;48.586;12.066;2023-04-26T05:42:12;96441.00;;;8.02;65.92
21821;BME280;11073;48.586;12.066;2023-04-26T05:44:45;96454.88;;;8.06;65.52
21821;BME280;11073;48.586;12.066;2023-04-26T05:47:14;96454.66;;;8.07;65.49
21821;BME280;11073;48.586;12.066;2023-04-26T05:49:43;96458.69;;;8.16;65.56
21821;BME280;11073;48.586;12.066;2023-04-26T05:52:12;96465.31;;;8.20;65.25
21821;BME280;11073;48.586;12.066;2023-04-26T05:54:40;96471.94;;;8.18;64.65
21821;BME280;11073;48.586;12.066;2023-04-26T05:57:09;96467.38;;;8.18;64.82
21821;BME280;11073;48.586;12.066;2023-04-26T05:59:38;96461.56;;;8.21;64.64
21821;BME280;11073;48.586;12.066;2023-04-26T06:02:08;96463.50;;;8.33;64.44
21821;BME280;11073;48.586;12.066;2023-04-26T06:04:39;96468.69;;;8.34;64.44
21821;BME280;11073;48.586;12.066;2023-04-26T06:07:12;96468.84;;;8.39;64.20
21821;BME280;11073;48.586;12.066;2023-04-26T06:09:40;96475.25;;;8.45;64.01
21821;BME280;11073;48.586;12.066;2023-04-26T06:12:09;96471.72;;;8.44;63.55
21821;BME280;11073;48.586;12.066;2023-04-26T06:14:41;96470.91;;;8.44;63.37
21821;BME280;11073;48.586;12.066;2023-04-26T06:17:16;96468.66;;;8.41;63.35
21821;BME280;11073;48.586;12.066;2023-04-26T06:19:46;96470.44;;;8.47;62.98
21821;BME280;11073;48.586;12.066;2023-04-26T06:22:15;96461.53;;;8.46;62.74
21821;BME280;11073;48.586;12.066;2023-04-26T06:24:43;96460.09;;;8.44;62.74
21821;BME280;11073;48.586;12.066;2023-04-26T06:27:13;96471.41;;;8.52;62.39
21821;BME280;11073;48.586;12.066;2023-04-26T06:29:46;96482.72;;;8.61;62.40
21821;BME280;11073;48.586;12.066;2023-04-26T06:32:17;96482.47;;;8.69;62.18
21821;BME280;11073;48.586;12.066;2023-04-26T06:34:46;96481.53;;;8.75;61.97
21821;BME280;11073;48.586;12.066;2023-04-26T06:37:15;96486.25;;;8.80;61.71
21821;BME280;11073;48.586;12.066;2023-04-26T06:39:44;96490.75;;;8.86;61.75
21821;BME280;11073;48.586;12.066;2023-04-26T06:42:13;96477.53;;;8.96;61.55
21821;BME280;11073;48.586;12.066;2023-04-26T06:45:10;96491.34;;;9.06;61.40
21821;BME280;11073;48.586;12.066;2023-04-26T06:47:41;96492.75;;;9.09;61.29
21821;BME280;11073;48.586;12.066;2023-04-26T06:50:11;96485.84;;;9.13;61.14
21821;BME280;11073;48.586;12.066;2023-04-26T06:52:40;96499.13;;;9.15;60.78
21821;BME280;11073;48.586;12.066;2023-04-26T06:55:09;96500.91;;;9.21;60.56
21821;BME280;11073;48.586;12.066;2023-04-26T06:57:38;96488.91;;;9.17;60.11
21821;BME280;11073;48.586;12.066;2023-04-26T07:00:08;96506.34;;;9.32;60.08
21821;BME280;11073;48.586;12.066;2023-04-26T07:02:37;96509.66;;;9.34;59.70
21821;BME280;11073;48.586;12.066;2023-04-26T07:05:09;96493.56;;;9.28;59.67
21821;BME280;11073;48.586;12.066;2023-04-26T07:07:37;96516.00;;;9.40;59.80
21821;BME280;11073;48.586;12.066;2023-04-26T07:10:07;96509.94;;;9.45;59.13
21821;BME280;11073;48.586;12.066;2023-04-26T07:12:36;96499.25;;;9.50;58.99
21821;BME280;11073;48.586;12.066;2023-04-26T07:15:06;96503.53;;;9.57;58.62
21821;BME280;11073;48.586;12.066;2023-04-26T07:17:36;96511.47;;;9.52;58.55
21821;BME280;11073;48.586;12.066;2023-04-26T07:20:06;96513.63;;;9.62;57.99
21821;BME280;11073;48.586;12.066;2023-04-26T07:22:37;96508.94;;;9.69;57.84
21821;BME280;11073;48.586;12.066;2023-04-26T07:25:07;96500.00;;;9.68;57.45
21821;BME280;11073;48.586;12.066;2023-04-26T07:27:35;96504.81;;;9.66;57.89
21821;BME280;11073;48.586;12.066;2023-04-26T07:30:05;96491.69;;;9.82;57.68
21821;BME280;11073;48.586;12.066;2023-04-26T07:32:34;96499.84;;;9.93;56.77
21821;BME280;11073;48.586;12.066;2023-04-26T07:35:05;96504.53;;;9.98;56.86
21821;BME280;11073;48.586;12.066;2023-04-26T07:37:34;96509.38;;;10.08;56.87
21821;BME280;11073;48.586;12.066;2023-04-26T07:40:06;96506.91;;;10.18;56.51
21821;BME280;11073;48.586;12.066;2023-04-26T07:42:37;96507.97;;;10.17;56.14
21821;BME280;11073;48.586;12.066;2023-04-26T07:45:06;96506.34;;;10.16;56.06
21821;BME280;11073;48.586;12.066;2023-04-26T07:47:35;96505.41;;;10.22;55.67
21821;BME280;11073;48.586;12.066;2023-04-26T07:50:05;96498.47;;;10.26;55.37
21821;BME280;11073;48.586;12.066;2023-04-26T07:52:34;96507.66;;;10.37;55.40
21821;BME280;11073;48.586;12.066;2023-04-26T07:55:05;96505.53;;;10.39;54.97
21821;BME280;11073;48.586;12.066;2023-04-26T07:57:34;96506.13;;;10.41;54.80
21821;BME280;11073;48.586;12.066;2023-04-26T08:00:04;96508.59;;;10.54;54.71
21821;BME280;11073;48.586;12.066;2023-04-26T08:02:38;96506.00;;;10.59;54.36
21821;BME280;11073;48.586;12.066;2023-04-26T08:05:11;96505.88;;;10.66;54.15
21821;BME280;11073;48.586;12.066;2023-04-26T08:07:42;96507.66;;;10.72;53.80
21821;BME280;11073;48.586;12.066;2023-04-26T08:10:12;96505.97;;;10.83;53.54
21821;BME280;11073;48.586;12.066;2023-04-26T08:12:40;96505.28;;;10.75;53.41
21821;BME280;11073;48.586;12.066;2023-04-26T08:15:10;96501.75;;;10.75;52.95
21821;BME280;11073;48.586;12.066;2023-04-26T08:17:39;96510.56;;;10.82;52.61
21821;BME280;11073;48.586;12.066;2023-04-26T08:20:09;96498.19;;;10.86;52.15
21821;BME280;11073;48.586;12.066;2023-04-26T08:22:38;96506.53;;;10.96;51.83
21821;BME280;11073;48.586;12.066;2023-04-26T08:25:08;96502.88;;;10.91;51.64
21821;BME280;11073;48.586;12.066;2023-04-26T08:27:38;96502.63;;;10.92;51.17
21821;BME280;11073;48.586;12.066;2023-04-26T08:30:07;96506.28;;;11.10;51.44
21821;BME280;11073;48.586;12.066;2023-04-26T08:32:36;96508.59;;;11.18;51.24
21821;BME280;11073;48.586;12.066;2023-04-26T08:35:05;96501.66;;;11.10;50.71
21821;BME280;11073;48.586;12.066;2023-04-26T08:37:35;96495.94;;;10.95;50.85
21821;BME280;11073;48.586;12.066;2023-04-26T08:40:05;96503.28;;;11.23;50.53
21821;BME280;11073;48.586;12.066;2023-04-26T08:42:39;96502.06;;;11.30;50.53
21821;BME280;11073;48.586;12.066;2023-04-26T08:45:10;96501.81;;;11.60;50.00
21821;BME280;11073;48.586;12.066;2023-04-26T08:47:43;96498.28;;;11.89;49.72
21821;BME280;11073;48.586;12.066;2023-04-26T08:50:15;96511.03;;;11.88;49.55
21821;BME280;11073;48.586;12.066;2023-04-26T08:52:47;96500.94;;;11.72;48.98
21821;BME280;11073;48.586;12.066;2023-04-26T08:55:17;96502.56;;;11.73;49.00
21821;BME280;11073;48.586;12.066;2023-04-26T08:57:48;96499.78;;;11.68;48.79
21821;BME280;11073;48.586;12.066;2023-04-26T09:00:17;96503.88;;;11.53;48.40
21821;BME280;11073;48.586;12.066;2023-04-26T09:02:49;96506.19;;;11.33;47.98
21821;BME280;11073;48.586;12.066;2023-04-26T09:05:19;96494.66;;;11.26;47.99
21821;BME280;11073;48.586;12.066;2023-04-26T09:07:53;96496.16;;;11.33;48.20
21821;BME280;11073;48.586;12.066;2023-04-26T09:10:23;96495.09;;;11.80;48.04
21821;BME280;11073;48.586;12.066;2023-04-26T09:12:54;96496.72;;;12.26;47.96
21821;BME280;11073;48.586;12.066;2023-04-26T09:15:24;96501.41;;;12.31;47.05
21821;BME280;11073;48.586;12.066;2023-04-26T09:17:54;96510.28;;;12.09;46.99
21821;BME280;11073;48.586;12.066;2023-04-26T09:20:24;96499.69;;;11.91;46.73
21821;BME280;11073;48.586;12.066;2023-04-26T09:23:03;96491.03;;;11.94;46.85
21821;BME280;11073;48.586;12.066;2023-04-26T09:25:33;96502.63;;;11.90;46.92
21821;BME280;11073;48.586;12.066;2023-04-26T09:28:18;96497.06;;;12.13;47.19
21821;BME280;11073;48.586;12.066;2023-04-26T09:30:47;96504.13;;;12.48;47.15
21821;BME280;11073;48.586;12.066;2023-04-26T09:33:15;96497.53;;;12.43;47.08
21821;BME280;11073;48.586;12.066;2023-04-26T09:35:45;96494.09;;;12.31;46.67
21821;BME280;11073;48.586;12.066;2023-04-26T09:38:16;96494.84;;;12.27;46.15
21821;BME280;11073;48.586;12.066;2023-04-26T09:40:46;96490.31;;;12.15;46.16
21821;BME280;11073;48.586;12.066;2023-04-26T09:43:19;96493.09;;;12.21;46.32
21821;BME280;11073;48.586;12.066;2023-04-26T09:45:49;96495.78;;;12.54;46.06
21821;BME280;11073;48.586;12.066;2023-04-26T09:48:20;96479.50;;;12.54;45.84
21821;BME280;11073;48.586;12.066;2023-04-26T09:50:50;96495.34;;;13.01;45.76
21821;BME280;11073;48.586;12.066;2023-04-26T09:53:27;96490.53;;;13.08;44.79
21821;BME280;11073;48.586;12.066;2023-04-26T09:56:05;96496.66;;;12.77;44.56
21821;BME280;11073;48.586;12.066;2023-04-26T09:58:38;96498.09;;;12.62;44.64
21821;BME280;11073;48.586;12.066;2023-04-26T10:01:07;96501.16;;;12.49;44.23
21821;BME280;11073;48.586;12.066;2023-04-26T10:03:38;96493.03;;;12.32;43.96
21821;BME280;11073;48.586;12.066;2023-04-26T10:06:11;96498.94;;;12.12;43.85
21821;BME280;11073;48.586;12.066;2023-04-26T10:08:40;96491.88;;;12.11;43.84
21821;BME280;11073;48.586;12.066;2023-04-26T10:11:09;96491.88;;;12.11;43.96
21821;BME280;11073;48.586;12.066;2023-04-26T10:13:41;96494.34;;;12.13;43.66
21821;BME280;11073;48.586;12.066;2023-04-26T10:16:11;96493.63;;;12.18;43.68
21821;BME280;11073;48.586;12.066;2023-04-26T10:18:39;96488.66;;;12.14;43.59
21821;BME280;11073;48.586;12.066;2023-04-26T10:21:11;96484.22;;;12.08;43.46
21821;BME280;11073;48.586;12.066;2023-04-26T10:23:42;96487.22;;;12.46;43.81
21821;BME280;11073;48.586;12.066;2023-04-26T10:26:46;96488.59;;;13.47;44.13
21821;BME280;11073;48.586;12.066;2023-04-26T10:29:17;96479.09;;;14.09;43.41
21821;BME280;11073;48.586;12.066;2023-04-26T10:32:05;96485.75;;;14.60;42.60
21821;BME280;11073;48.586;12.066;2023-04-26T10:34:36;96474.22;;;14.48;42.10
21821;BME280;11073;48.586;12.066;2023-04-26T10:37:06;96472.75;;;13.98;41.42
21821;BME280;11073;48.586;12.066;2023-04-26T10:39:35;96482.97;;;13.59;41.69
21821;BME280;11073;48.586;12.066;2023-04-26T10:42:20;96482.00;;;13.43;41.48
21821;BME280;11073;48.586;12.066;2023-04-26T10:44:54;96481.97;;;13.65;41.68
21821;BME280;11073;48.586;12.066;2023-04-26T10:47:29;96471.91;;;13.66;41.10
21821;BME280;11073;48.586;12.066;2023-04-26T10:50:03;96465.81;;;14.18;41.02
21821;BME280;11073;48.586;12.066;2023-04-26T10:52:33;96464.63;;;14.78;40.95
21821;BME280;11073;48.586;12.066;2023-04-26T10:55:01;96467.78;;;15.17;40.52
21821;BME280;11073;48.586;12.066;2023-04-26T10:57:50;96448.72;;;15.22;39.94
21821;BME280;11073;48.586;12.066;2023-04-26T11:00:29;96465.81;;;15.02;39.85
21821;BME280;11073;48.586;12.066;2023-04-26T11:03:04;96459.16;;;14.78;39.76
21821;BME280;11073;48.586;12.066;2023-04-26T11:05:47;96450.72;;;14.84;39.38
21821;BME280;11073;48.586;12.066;2023-04-26T11:08:19;96449.00;;;15.26;39.17
21821;BME280;11073;48.586;12.066;2023-04-26T11:10:51;96438.84;;;15.06;38.67
21821;BME280;11073;48.586;12.066;2023-04-26T11:13:20;96441.63;;;15.21;38.63
21821;BME280;11073;48.586;12.066;2023-04-26T11:15:53;96441.09;;;15.34;38.28
21821;BME280;11073;48.586;12.066;2023-04-26T11:18:22;96443.97;;;15.75;38.21
21821;BME280;11073;48.586;12.066;2023-04-26T11:20:51;96441.22;;;16.00;37.50
21821;BME280;11073;48.586;12.066;2023-04-26T11:23:20;96427.22;;;15.41;36.54
21821;BME280;11073;48.586;12.066;2023-04-26T11:25:50;96431.13;;;14.87;36.49
21821;BME280;11073;48.586;12.066;2023-04-26T11:28:21;96436.47;;;14.67;36.98
21821;BME280;11073;48.586;12.066;2023-04-26T11:30:51;96443.38;;;14.38;37.06
21821;BME280;11073;48.586;12.066;2023-04-26T11:33:20;96436.66;;;14.13;36.94
21821;BME280;11073;48.586;12.066;2023-04-26T11:35:51;96421.94;;;14.09;37.42
21821;BME280;11073;48.586;12.066;2023-04-26T11:38:21;96438.59;;;15.07;37.73
21821;BME280;11073;48.586;12.066;2023-04-26T11:40:54;96434.69;;;16.07;37.42
21821;BME280;11073;48.586;12.066;2023-04-26T11:43:29;96423.69;;;16.58;36.45
21821;BME280;11073;48.586;12.066;2023-04-26T11:46:00;96412.69;;;16.93;35.71
21821;BME280;11073;48.586;12.066;2023-04-26T11:48:29;96427.94;;;17.09;35.17
21821;BME280;11073;48.586;12.066;2023-04-26T11:50:59;96421.44;;;16.95;34.90
21821;BME280;11073;48.586;12.066;2023-04-26T11:53:34;96431.38;;;16.40;34.76
21821;BME280;11073;48.586;12.066;2023-04-26T11:56:04;96430.03;;;15.92;35.06
21821;BME280;11073;48.586;12.066;2023-04-26T11:58:33;96439.53;;;15.54;35.19
21821;BME280;11073;48.586;12.066;2023-04-26T12:01:03;96433.50;;;15.41;35.60
21821;BME280;11073;48.586;12.066;2023-04-26T12:03:33;96426.94;;;15.37;35.83
21821;BME280;11073;48.586;12.066;2023-04-26T12:06:04;96428.03;;;15.36;35.92
21821;BME280;11073;48.586;12.066;2023-04-26T12:08:33;96438.97;;;15.57;36.01
21821;BME280;11073;48.586;12.066;2023-04-26T12:11:02;96444.25;;;16.30;36.44
21821;BME280;11073;48.586;12.066;2023-04-26T12:13:31;96434.28;;;16.95;36.03
21821;BME280;11073;48.586;12.066;2023-04-26T12:16:08;96442.75;;;16.93;35.37
21821;BME280;11073;48.586;12.066;2023-04-26T12:18:52;96435.16;;;16.65;34.97
21821;BME280;11073;48.586;12.066;2023-04-26T12:21:22;96431.44;;;17.15;34.88
21821;BME280;11073;48.586;12.066;2023-04-26T12:23:54;96435.13;;;16.85;34.47
21821;BME280;11073;48.586;12.066;2023-04-26T12:26:39;96441.75;;;16.43;34.53
21821;BME280;11073;48.586;12.066;2023-04-26T12:29:08;96432.69;;;16.58;34.76
21821;BME280;11073;48.586;12.066;2023-04-26T12:31:39;96438.09;;;16.94;34.76
21821;BME280;11073;48.586;12.066;2023-04-26T12:34:07;96433.56;;;16.59;34.31
21821;BME280;11073;48.586;12.066;2023-04-26T12:36:38;96440.44;;;16.31;34.38
21821;BME280;11073;48.586;12.066;2023-04-26T12:39:07;96437.41;;;16.32;34.56
21821;BME280;11073;48.586;12.066;2023-04-26T12:41:36;96434.66;;;16.52;34.60
21821;BME280;11073;48.586;12.066;2023-04-26T12:44:05;96443.78;;;17.13;34.67
21821;BME280;11073;48.586;12.066;2023-04-26T12:46:34;96431.84;;;16.88;34.27
21821;BME280;11073;48.586;12.066;2023-04-26T12:49:05;96431.63;;;16.69;33.93
21821;BME280;11073;48.586;12.066;2023-04-26T12:51:34;96432.41;;;16.85;34.00
21821;BME280;11073;48.586;12.066;2023-04-26T12:54:02;96420.66;;;16.64;33.80
21821;BME280;11073;48.586;12.066;2023-04-26T12:56:32;96428.38;;;16.37;33.77
21821;BME280;11073;48.586;12.066;2023-04-26T12:59:01;96421.56;;;16.14;34.05
21821;BME280;11073;48.586;12.066;2023-04-26T13:01:29;96418.84;;;15.98;34.17
21821;BME280;11073;48.586;12.066;2023-04-26T13:03:58;96424.59;;;15.97;34.36
21821;BME280;11073;48.586;12.066;2023-04-26T13:06:28;96418.31;;;15.86;34.02
21821;BME280;11073;48.586;12.066;2023-04-26T13:08:57;96421.31;;;15.95;34.38
21821;BME280;11073;48.586;12.066;2023-04-26T13:11:26;96423.75;;;16.12;34.34
21821;BME280;11073;48.586;12.066;2023-04-26T13:13:54;96423.75;;;16.12;34.06